Mountain Green, Utah
Current Conditions -  °F | °C
As of 8:58 AM on Friday 19 Dec 2014 (Local Time) from KHIF Reporting Station
Broken Clouds Broken Clouds  
Wind Chill: 23°   Ceiling: 9000
Heat Index: 32°   Visibility: 10mi
Dew Point: 24°   Wind: 12mph
Humidity: 70%   Direction: 110°ESE
Pressure: 30.18"   Gusts: NA
Location:  41.0884°N, 111.576°W
Report Text: KHIF 191558Z 11010KT 10SM BKN090 BKN150 00/M05 A3018 RMK AO2A SLP231 T00021046
Loading
Personal Weather Stations






























Interactive Weather Map New forecast layout! Learn more

10-Day Weather Forecast

Advertisements
Track Severe Weather on mobile